sensor_id;sensor_type;location;lat;lon;timestamp;pressure;altitude;pressure_sealevel;temperature;humidity
70952;BME280;69214;55.880;37.542;2023-12-20T00:00:00;97020.38;;;2.25;90.50
70952;BME280;69214;55.880;37.542;2023-12-20T00:02:26;97026.13;;;2.17;90.41
70952;BME280;69214;55.880;37.542;2023-12-20T00:04:52;97041.56;;;2.21;90.81
70952;BME280;69214;55.880;37.542;2023-12-20T00:07:18;97040.84;;;2.26;91.23
70952;BME280;69214;55.880;37.542;2023-12-20T00:09:44;97044.78;;;2.35;90.65
70952;BME280;69214;55.880;37.542;2023-12-20T00:12:10;97038.34;;;2.36;90.68
70952;BME280;69214;55.880;37.542;2023-12-20T00:14:36;97053.09;;;2.34;90.75
70952;BME280;69214;55.880;37.542;2023-12-20T00:17:02;97030.88;;;2.26;90.60
70952;BME280;69214;55.880;37.542;2023-12-20T00:19:28;97046.56;;;2.30;91.16
70952;BME280;69214;55.880;37.542;2023-12-20T00:21:54;97059.44;;;2.27;90.53
70952;BME280;69214;55.880;37.542;2023-12-20T00:24:22;97058.97;;;2.31;91.37
70952;BME280;69214;55.880;37.542;2023-12-20T00:26:48;97067.34;;;2.46;91.08
70952;BME280;69214;55.880;37.542;2023-12-20T00:29:13;97026.38;;;2.44;91.51
70952;BME280;69214;55.880;37.542;2023-12-20T00:31:39;97051.66;;;2.71;91.32
70952;BME280;69214;55.880;37.542;2023-12-20T00:34:05;97065.66;;;2.85;91.44
70952;BME280;69214;55.880;37.542;2023-12-20T00:36:31;97066.66;;;2.96;92.01
70952;BME280;69214;55.880;37.542;2023-12-20T00:38:57;97063.81;;;3.02;91.23
70952;BME280;69214;55.880;37.542;2023-12-20T00:41:22;97071.16;;;3.07;91.79
70952;BME280;69214;55.880;37.542;2023-12-20T00:43:48;97064.47;;;3.09;91.78
70952;BME280;69214;55.880;37.542;2023-12-20T00:46:14;97075.34;;;3.14;91.19
70952;BME280;69214;55.880;37.542;2023-12-20T00:48:40;97067.09;;;3.21;91.24
70952;BME280;69214;55.880;37.542;2023-12-20T00:51:07;97059.59;;;3.23;92.10
70952;BME280;69214;55.880;37.542;2023-12-20T00:53:33;97073.38;;;3.27;92.08
70952;BME280;69214;55.880;37.542;2023-12-20T00:55:59;97069.72;;;3.33;91.37
70952;BME280;69214;55.880;37.542;2023-12-20T00:58:25;97033.28;;;3.13;91.93
70952;BME280;69214;55.880;37.542;2023-12-20T01:00:52;97045.78;;;3.19;91.22
70952;BME280;69214;55.880;37.542;2023-12-20T01:03:17;97041.03;;;3.10;91.00
70952;BME280;69214;55.880;37.542;2023-12-20T01:05:43;97052.13;;;2.97;90.59
70952;BME280;69214;55.880;37.542;2023-12-20T01:08:09;97049.25;;;2.86;90.58
70952;BME280;69214;55.880;37.542;2023-12-20T01:10:35;97020.56;;;2.64;90.36
70952;BME280;69214;55.880;37.542;2023-12-20T01:13:01;97027.88;;;2.51;90.80
70952;BME280;69214;55.880;37.542;2023-12-20T01:15:26;97040.31;;;2.41;90.39
70952;BME280;69214;55.880;37.542;2023-12-20T01:17:52;97046.56;;;2.30;90.86
70952;BME280;69214;55.880;37.542;2023-12-20T01:20:18;97037.81;;;2.22;91.03
70952;BME280;69214;55.880;37.542;2023-12-20T01:22:45;97022.66;;;2.05;90.68
70952;BME280;69214;55.880;37.542;2023-12-20T01:25:12;97021.97;;;1.98;90.41
70952;BME280;69214;55.880;37.542;2023-12-20T01:27:38;97012.03;;;1.86;90.65
70952;BME280;69214;55.880;37.542;2023-12-20T01:30:04;97021.88;;;1.81;90.66
70952;BME280;69214;55.880;37.542;2023-12-20T01:32:30;97029.00;;;1.75;91.01
70952;BME280;69214;55.880;37.542;2023-12-20T01:34:56;97015.69;;;1.69;90.71
70952;BME280;69214;55.880;37.542;2023-12-20T01:37:21;97011.72;;;1.59;90.87
70952;BME280;69214;55.880;37.542;2023-12-20T01:39:49;97033.09;;;1.66;91.16
70952;BME280;69214;55.880;37.542;2023-12-20T01:42:15;97020.13;;;1.63;91.09
70952;BME280;69214;55.880;37.542;2023-12-20T01:44:40;97017.56;;;1.68;91.20
70952;BME280;69214;55.880;37.542;2023-12-20T01:47:07;97013.13;;;1.62;91.05
70952;BME280;69214;55.880;37.542;2023-12-20T01:49:33;97012.44;;;1.67;90.54
70952;BME280;69214;55.880;37.542;2023-12-20T01:51:59;96985.44;;;1.61;91.50
70952;BME280;69214;55.880;37.542;2023-12-20T01:54:25;97009.81;;;1.83;91.40
70952;BME280;69214;55.880;37.542;2023-12-20T01:56:51;97003.50;;;1.89;91.94
70952;BME280;69214;55.880;37.542;2023-12-20T01:59:18;96988.25;;;2.07;91.22
70952;BME280;69214;55.880;37.542;2023-12-20T02:01:46;96994.09;;;2.15;91.80
70952;BME280;69214;55.880;37.542;2023-12-20T02:04:12;96994.75;;;2.22;91.08
70952;BME280;69214;55.880;37.542;2023-12-20T02:06:39;97003.59;;;2.35;91.56
70952;BME280;69214;55.880;37.542;2023-12-20T02:09:06;96991.34;;;2.27;91.51
70952;BME280;69214;55.880;37.542;2023-12-20T02:11:33;96987.38;;;2.30;91.36
70952;BME280;69214;55.880;37.542;2023-12-20T02:14:01;96985.28;;;2.20;91.93
70952;BME280;69214;55.880;37.542;2023-12-20T02:16:27;96943.88;;;1.92;91.60
70952;BME280;69214;55.880;37.542;2023-12-20T02:18:53;96978.66;;;2.11;91.74
70952;BME280;69214;55.880;37.542;2023-12-20T02:21:25;96969.53;;;2.12;90.83
70952;BME280;69214;55.880;37.542;2023-12-20T02:23:51;96970.34;;;2.12;91.25
70952;BME280;69214;55.880;37.542;2023-12-20T02:26:17;96988.25;;;2.07;91.56
70952;BME280;69214;55.880;37.542;2023-12-20T02:28:44;96970.31;;;1.84;91.10
70952;BME280;69214;55.880;37.542;2023-12-20T02:31:10;96984.91;;;1.88;90.74
70952;BME280;69214;55.880;37.542;2023-12-20T02:33:36;96988.22;;;1.78;91.68
70952;BME280;69214;55.880;37.542;2023-12-20T02:36:01;96993.97;;;1.70;91.08
70952;BME280;69214;55.880;37.542;2023-12-20T02:38:27;96981.13;;;1.60;90.59
70952;BME280;69214;55.880;37.542;2023-12-20T02:40:53;96989.41;;;1.71;91.34
70952;BME280;69214;55.880;37.542;2023-12-20T02:43:19;96994.75;;;1.82;91.68
70952;BME280;69214;55.880;37.542;2023-12-20T02:45:45;96975.31;;;1.92;90.92
70952;BME280;69214;55.880;37.542;2023-12-20T02:48:11;96994.91;;;2.16;91.57
70952;BME280;69214;55.880;37.542;2023-12-20T02:50:37;96994.84;;;2.27;92.16
70952;BME280;69214;55.880;37.542;2023-12-20T02:53:03;96996.34;;;2.35;91.63
70952;BME280;69214;55.880;37.542;2023-12-20T02:55:29;96996.16;;;2.53;91.76
70952;BME280;69214;55.880;37.542;2023-12-20T02:57:55;96993.56;;;2.58;92.25
70952;BME280;69214;55.880;37.542;2023-12-20T03:00:21;96992.00;;;2.63;91.92
70952;BME280;69214;55.880;37.542;2023-12-20T03:02:46;96981.91;;;2.70;91.85
70952;BME280;69214;55.880;37.542;2023-12-20T03:05:12;96989.00;;;2.76;91.21
70952;BME280;69214;55.880;37.542;2023-12-20T03:07:38;96989.09;;;2.81;91.93
70952;BME280;69214;55.880;37.542;2023-12-20T03:10:05;96978.41;;;2.86;92.01
70952;BME280;69214;55.880;37.542;2023-12-20T03:12:33;96983.66;;;2.92;91.53
70952;BME280;69214;55.880;37.542;2023-12-20T03:14:59;96972.53;;;2.89;91.94
70952;BME280;69214;55.880;37.542;2023-12-20T03:17:25;96989.44;;;3.01;91.24
70952;BME280;69214;55.880;37.542;2023-12-20T03:19:51;96986.75;;;3.01;91.69
70952;BME280;69214;55.880;37.542;2023-12-20T03:22:17;96984.88;;;3.02;91.24
70952;BME280;69214;55.880;37.542;2023-12-20T03:24:43;96993.59;;;3.09;91.62
70952;BME280;69214;55.880;37.542;2023-12-20T03:27:09;96990.09;;;3.08;91.69
70952;BME280;69214;55.880;37.542;2023-12-20T03:29:35;96983.56;;;3.04;91.04
70952;BME280;69214;55.880;37.542;2023-12-20T03:32:00;96990.91;;;3.09;91.40
70952;BME280;69214;55.880;37.542;2023-12-20T03:34:26;96990.34;;;3.07;91.62
70952;BME280;69214;55.880;37.542;2023-12-20T03:36:53;96994.91;;;3.06;91.25
70952;BME280;69214;55.880;37.542;2023-12-20T03:39:19;96991.91;;;3.03;91.25
70952;BME280;69214;55.880;37.542;2023-12-20T03:41:44;96996.47;;;3.02;91.14
70952;BME280;69214;55.880;37.542;2023-12-20T03:44:10;97003.97;;;3.00;91.49
70952;BME280;69214;55.880;37.542;2023-12-20T03:46:36;96993.94;;;2.96;91.42
70952;BME280;69214;55.880;37.542;2023-12-20T03:49:02;96997.19;;;2.98;90.96
70952;BME280;69214;55.880;37.542;2023-12-20T03:51:28;97000.63;;;2.93;90.79
70952;BME280;69214;55.880;37.542;2023-12-20T03:53:53;96998.50;;;2.95;91.09
70952;BME280;69214;55.880;37.542;2023-12-20T03:56:19;96988.63;;;2.84;91.32
70952;BME280;69214;55.880;37.542;2023-12-20T03:58:45;96998.50;;;2.95;91.09
70952;BME280;69214;55.880;37.542;2023-12-20T04:01:11;97007.88;;;2.92;91.07
70952;BME280;69214;55.880;37.542;2023-12-20T04:03:39;96986.50;;;2.86;91.16
70952;BME280;69214;55.880;37.542;2023-12-20T04:06:06;96981.13;;;2.86;90.42
70952;BME280;69214;55.880;37.542;2023-12-20T04:08:32;97001.75;;;2.97;90.53
70952;BME280;69214;55.880;37.542;2023-12-20T04:10:57;96997.44;;;2.96;91.13
70952;BME280;69214;55.880;37.542;2023-12-20T04:13:23;97008.53;;;3.00;90.62
70952;BME280;69214;55.880;37.542;2023-12-20T04:15:49;96993.78;;;3.02;90.74
70952;BME280;69214;55.880;37.542;2023-12-20T04:18:16;96995.97;;;3.05;91.30
70952;BME280;69214;55.880;37.542;2023-12-20T04:20:42;96949.19;;;2.78;91.28
70952;BME280;69214;55.880;37.542;2023-12-20T04:23:08;96994.09;;;3.06;90.93
70952;BME280;69214;55.880;37.542;2023-12-20T04:25:34;96995.72;;;3.07;90.45
70952;BME280;69214;55.880;37.542;2023-12-20T04:28:00;96999.72;;;3.04;91.07
70952;BME280;69214;55.880;37.542;2023-12-20T04:30:25;96993.19;;;3.00;91.15
70952;BME280;69214;55.880;37.542;2023-12-20T04:32:51;96984.47;;;2.93;91.01
70952;BME280;69214;55.880;37.542;2023-12-20T04:35:17;97014.19;;;2.98;91.10
70952;BME280;69214;55.880;37.542;2023-12-20T04:37:45;97002.81;;;2.96;90.96
70952;BME280;69214;55.880;37.542;2023-12-20T04:40:15;97004.38;;;2.92;91.14
70952;BME280;69214;55.880;37.542;2023-12-20T04:42:41;97007.22;;;2.85;90.86
70952;BME280;69214;55.880;37.542;2023-12-20T04:45:07;97009.09;;;2.85;90.57
70952;BME280;69214;55.880;37.542;2023-12-20T04:47:33;97012.28;;;2.82;90.42
70952;BME280;69214;55.880;37.542;2023-12-20T04:49:59;97013.91;;;2.83;90.65
70952;BME280;69214;55.880;37.542;2023-12-20T04:52:25;97010.16;;;2.84;90.36
70952;BME280;69214;55.880;37.542;2023-12-20T04:54:51;97006.41;;;2.85;90.85
70952;BME280;69214;55.880;37.542;2023-12-20T04:57:17;97008.84;;;2.86;90.71
70952;BME280;69214;55.880;37.542;2023-12-20T04:59:43;97011.56;;;2.86;90.54
70952;BME280;69214;55.880;37.542;2023-12-20T05:02:09;97020.28;;;2.93;91.24
70952;BME280;69214;55.880;37.542;2023-12-20T05:04:35;96993.53;;;2.87;91.29
70952;BME280;69214;55.880;37.542;2023-12-20T05:07:00;96994.56;;;2.86;91.24
70952;BME280;69214;55.880;37.542;2023-12-20T05:09:26;97011.91;;;3.07;91.18
70952;BME280;69214;55.880;37.542;2023-12-20T05:11:52;97018.66;;;3.09;90.81
70952;BME280;69214;55.880;37.542;2023-12-20T05:14:18;97021.13;;;3.11;90.90
70952;BME280;69214;55.880;37.542;2023-12-20T05:16:45;97020.31;;;3.10;91.43
70952;BME280;69214;55.880;37.542;2023-12-20T05:19:11;97020.88;;;3.12;90.98
70952;BME280;69214;55.880;37.542;2023-12-20T05:21:37;97027.09;;;3.13;90.78
70952;BME280;69214;55.880;37.542;2023-12-20T05:24:03;97033.28;;;3.13;91.19
70952;BME280;69214;55.880;37.542;2023-12-20T05:26:29;97021.44;;;3.14;90.63
70952;BME280;69214;55.880;37.542;2023-12-20T05:28:56;97009.94;;;3.02;90.61
70952;BME280;69214;55.880;37.542;2023-12-20T05:31:21;97030.59;;;3.13;90.96
70952;BME280;69214;55.880;37.542;2023-12-20T05:33:47;97025.22;;;3.13;91.21
70952;BME280;69214;55.880;37.542;2023-12-20T05:36:13;97022.91;;;3.05;90.73
70952;BME280;69214;55.880;37.542;2023-12-20T05:38:40;97038.09;;;3.11;90.47
70952;BME280;69214;55.880;37.542;2023-12-20T05:41:07;97025.53;;;3.00;90.47
70952;BME280;69214;55.880;37.542;2023-12-20T05:43:33;97049.28;;;3.03;90.95
70952;BME280;69214;55.880;37.542;2023-12-20T05:45:58;97041.34;;;2.97;90.48
70952;BME280;69214;55.880;37.542;2023-12-20T05:48:24;97037.19;;;2.89;90.45
70952;BME280;69214;55.880;37.542;2023-12-20T05:50:50;97041.41;;;2.85;90.09
70952;BME280;69214;55.880;37.542;2023-12-20T05:53:16;97037.56;;;2.81;90.89
70952;BME280;69214;55.880;37.542;2023-12-20T05:55:42;97030.06;;;2.83;90.30
70952;BME280;69214;55.880;37.542;2023-12-20T05:58:09;97029.31;;;2.71;90.83
70952;BME280;69214;55.880;37.542;2023-12-20T06:00:34;97021.22;;;2.71;90.95
70952;BME280;69214;55.880;37.542;2023-12-20T06:03:00;96998.84;;;2.53;90.09
70952;BME280;69214;55.880;37.542;2023-12-20T06:05:26;97048.78;;;2.61;90.49
70952;BME280;69214;55.880;37.542;2023-12-20T06:07:52;97038.66;;;2.51;90.68
70952;BME280;69214;55.880;37.542;2023-12-20T06:10:18;97038.22;;;2.43;90.99
70952;BME280;69214;55.880;37.542;2023-12-20T06:12:45;97023.41;;;2.28;90.93
70952;BME280;69214;55.880;37.542;2023-12-20T06:15:12;97046.53;;;2.41;90.26
70952;BME280;69214;55.880;37.542;2023-12-20T06:17:38;97041.00;;;2.48;90.78
70952;BME280;69214;55.880;37.542;2023-12-20T06:20:06;97010.72;;;2.41;91.05
70952;BME280;69214;55.880;37.542;2023-12-20T06:22:34;97029.22;;;2.66;91.19
70952;BME280;69214;55.880;37.542;2023-12-20T06:25:00;97053.00;;;2.85;90.84
70952;BME280;69214;55.880;37.542;2023-12-20T06:27:26;97052.38;;;2.95;90.55
70952;BME280;69214;55.880;37.542;2023-12-20T06:29:52;97045.44;;;2.99;90.98
70952;BME280;69214;55.880;37.542;2023-12-20T06:32:18;97042.19;;;3.14;91.14
70952;BME280;69214;55.880;37.542;2023-12-20T06:34:43;97041.69;;;3.17;90.24
70952;BME280;69214;55.880;37.542;2023-12-20T06:37:10;97050.53;;;3.29;91.43
70952;BME280;69214;55.880;37.542;2023-12-20T06:39:36;97039.66;;;3.24;90.83
70952;BME280;69214;55.880;37.542;2023-12-20T06:42:02;97047.19;;;3.39;90.90
70952;BME280;69214;55.880;37.542;2023-12-20T06:44:28;97053.97;;;3.41;90.56
70952;BME280;69214;55.880;37.542;2023-12-20T06:46:55;97047.91;;;3.51;90.37
70952;BME280;69214;55.880;37.542;2023-12-20T06:49:21;97037.78;;;3.41;90.63
70952;BME280;69214;55.880;37.542;2023-12-20T06:51:46;97047.00;;;3.45;90.10
70952;BME280;69214;55.880;37.542;2023-12-20T06:54:12;97049.72;;;3.45;90.64
70952;BME280;69214;55.880;37.542;2023-12-20T06:56:38;97048.06;;;3.44;90.42
70952;BME280;69214;55.880;37.542;2023-12-20T06:59:04;97053.53;;;3.49;89.97
70952;BME280;69214;55.880;37.542;2023-12-20T07:01:30;97045.78;;;3.53;89.91
70952;BME280;69214;55.880;37.542;2023-12-20T07:03:56;97043.72;;;3.60;90.32
70952;BME280;69214;55.880;37.542;2023-12-20T07:06:23;97031.47;;;3.69;90.66
70952;BME280;69214;55.880;37.542;2023-12-20T07:08:50;97047.38;;;3.87;90.20
70952;BME280;69214;55.880;37.542;2023-12-20T07:11:16;97059.50;;;4.07;90.74
70952;BME280;69214;55.880;37.542;2023-12-20T07:14:08;97051.03;;;4.20;90.38
70952;BME280;69214;55.880;37.542;2023-12-20T07:16:40;97029.88;;;4.12;90.31
70952;BME280;69214;55.880;37.542;2023-12-20T07:19:06;97039.44;;;4.19;90.31
70952;BME280;69214;55.880;37.542;2023-12-20T07:21:32;97060.91;;;4.31;90.67
70952;BME280;69214;55.880;37.542;2023-12-20T07:23:58;97046.16;;;4.17;89.93
70952;BME280;69214;55.880;37.542;2023-12-20T07:26:24;97063.22;;;4.22;89.88
70952;BME280;69214;55.880;37.542;2023-12-20T07:28:49;97037.84;;;4.02;89.73
70952;BME280;69214;55.880;37.542;2023-12-20T07:31:16;97058.44;;;4.08;89.43
70952;BME280;69214;55.880;37.542;2023-12-20T07:33:44;97048.06;;;4.00;89.46
70952;BME280;69214;55.880;37.542;2023-12-20T07:36:12;97029.56;;;3.86;89.59
70952;BME280;69214;55.880;37.542;2023-12-20T07:38:38;97065.72;;;4.07;89.38
70952;BME280;69214;55.880;37.542;2023-12-20T07:41:04;97054.28;;;4.00;89.94
70952;BME280;69214;55.880;37.542;2023-12-20T07:43:30;97086.50;;;4.07;89.29
70952;BME280;69214;55.880;37.542;2023-12-20T07:45:56;97074.56;;;4.03;89.75
70952;BME280;69214;55.880;37.542;2023-12-20T07:48:22;97079.63;;;3.99;90.01
70952;BME280;69214;55.880;37.542;2023-12-20T07:50:48;97083.41;;;3.98;89.63
70952;BME280;69214;55.880;37.542;2023-12-20T07:53:13;97088.53;;;4.00;89.80
70952;BME280;69214;55.880;37.542;2023-12-20T07:55:39;97084.22;;;3.99;89.26
70952;BME280;69214;55.880;37.542;2023-12-20T07:58:05;97089.53;;;3.94;89.66
70952;BME280;69214;55.880;37.542;2023-12-20T08:00:31;97069.38;;;3.79;89.68
70952;BME280;69214;55.880;37.542;2023-12-20T08:02:57;97084.16;;;3.94;89.68
70952;BME280;69214;55.880;37.542;2023-12-20T08:05:23;97096.50;;;3.89;89.29
70952;BME280;69214;55.880;37.542;2023-12-20T08:07:48;97098.63;;;3.87;89.25
70952;BME280;69214;55.880;37.542;2023-12-20T08:10:14;97092.16;;;3.88;89.37
70952;BME280;69214;55.880;37.542;2023-12-20T08:12:40;97097.44;;;4.17;90.15
70952;BME280;69214;55.880;37.542;2023-12-20T08:15:06;97081.38;;;4.27;89.66
70952;BME280;69214;55.880;37.542;2023-12-20T08:17:32;97087.53;;;4.44;89.82
70952;BME280;69214;55.880;37.542;2023-12-20T08:19:58;97107.50;;;4.65;89.70
70952;BME280;69214;55.880;37.542;2023-12-20T08:22:25;97090.28;;;4.71;90.35
70952;BME280;69214;55.880;37.542;2023-12-20T08:24:51;97093.47;;;4.90;89.63
70952;BME280;69214;55.880;37.542;2023-12-20T08:27:17;97104.31;;;4.95;89.55
70952;BME280;69214;55.880;37.542;2023-12-20T08:29:44;97101.69;;;5.00;89.65
70952;BME280;69214;55.880;37.542;2023-12-20T08:32:11;97105.72;;;4.98;89.30
70952;BME280;69214;55.880;37.542;2023-12-20T08:34:36;97085.16;;;4.97;89.00
70952;BME280;69214;55.880;37.542;2023-12-20T08:37:02;97093.56;;;5.00;88.86
70952;BME280;69214;55.880;37.542;2023-12-20T08:39:28;97094.19;;;5.07;89.17
70952;BME280;69214;55.880;37.542;2023-12-20T08:41:55;97093.97;;;5.14;88.91
70952;BME280;69214;55.880;37.542;2023-12-20T08:44:21;97089.97;;;5.21;89.02
70952;BME280;69214;55.880;37.542;2023-12-20T08:46:48;97072.94;;;5.21;88.90
70952;BME280;69214;55.880;37.542;2023-12-20T08:49:14;97089.03;;;5.38;89.19
70952;BME280;69214;55.880;37.542;2023-12-20T08:51:39;97098.53;;;5.40;88.83
70952;BME280;69214;55.880;37.542;2023-12-20T08:54:06;97096.94;;;5.44;88.98
70952;BME280;69214;55.880;37.542;2023-12-20T08:56:34;97071.19;;;5.37;88.34
70952;BME280;69214;55.880;37.542;2023-12-20T08:59:00;97091.28;;;5.46;88.49
70952;BME280;69214;55.880;37.542;2023-12-20T09:01:26;97087.44;;;5.42;88.15
70952;BME280;69214;55.880;37.542;2023-12-20T09:03:52;97081.78;;;5.43;88.31
70952;BME280;69214;55.880;37.542;2023-12-20T09:06:17;97084.22;;;5.45;88.44
70952;BME280;69214;55.880;37.542;2023-12-20T09:08:43;97081.53;;;5.45;88.29
70952;BME280;69214;55.880;37.542;2023-12-20T09:11:09;97081.00;;;5.48;88.67
70952;BME280;69214;55.880;37.542;2023-12-20T09:13:35;97082.91;;;5.47;88.22
70952;BME280;69214;55.880;37.542;2023-12-20T09:16:02;97073.13;;;5.41;88.13
70952;BME280;69214;55.880;37.542;2023-12-20T09:18:28;97088.56;;;5.46;88.00
70952;BME280;69214;55.880;37.542;2023-12-20T09:20:54;97085.03;;;5.45;88.21
70952;BME280;69214;55.880;37.542;2023-12-20T09:23:20;97082.38;;;5.50;88.41
70952;BME280;69214;55.880;37.542;2023-12-20T09:25:46;97079.94;;;5.49;87.77
70952;BME280;69214;55.880;37.542;2023-12-20T09:28:12;97087.78;;;5.50;88.02
70952;BME280;69214;55.880;37.542;2023-12-20T09:30:38;97090.25;;;5.52;87.88
70952;BME280;69214;55.880;37.542;2023-12-20T09:33:05;97090.25;;;5.52;88.02
70952;BME280;69214;55.880;37.542;2023-12-20T09:35:33;97094.31;;;5.54;87.96
70952;BME280;69214;55.880;37.542;2023-12-20T09:37:59;97082.38;;;5.50;87.54
70952;BME280;69214;55.880;37.542;2023-12-20T09:40:26;97081.63;;;5.55;88.01
70952;BME280;69214;55.880;37.542;2023-12-20T09:43:03;97090.25;;;5.52;87.87
70952;BME280;69214;55.880;37.542;2023-12-20T09:45:31;97045.09;;;5.20;87.83
70952;BME280;69214;55.880;37.542;2023-12-20T09:47:57;97081.75;;;5.38;87.65
70952;BME280;69214;55.880;37.542;2023-12-20T09:50:24;97091.44;;;5.34;87.94
70952;BME280;69214;55.880;37.542;2023-12-20T09:52:52;97079.75;;;5.29;87.89
70952;BME280;69214;55.880;37.542;2023-12-20T09:55:19;97080.78;;;5.22;88.03
70952;BME280;69214;55.880;37.542;2023-12-20T09:57:46;97082.94;;;5.20;87.78
70952;BME280;69214;55.880;37.542;2023-12-20T10:00:13;97087.81;;;5.18;87.93
70952;BME280;69214;55.880;37.542;2023-12-20T10:02:44;97080.72;;;5.12;87.88
70952;BME280;69214;55.880;37.542;2023-12-20T10:05:16;97067.66;;;5.04;87.97
70952;BME280;69214;55.880;37.542;2023-12-20T10:07:42;97061.97;;;5.01;87.75
70952;BME280;69214;55.880;37.542;2023-12-20T10:10:08;97074.75;;;5.10;88.28
70952;BME280;69214;55.880;37.542;2023-12-20T10:12:34;97071.22;;;5.10;88.48
70952;BME280;69214;55.880;37.542;2023-12-20T10:15:00;97068.84;;;5.13;88.16
70952;BME280;69214;55.880;37.542;2023-12-20T10:17:27;97036.47;;;4.92;87.77
70952;BME280;69214;55.880;37.542;2023-12-20T10:19:54;97078.69;;;4.98;87.70
70952;BME280;69214;55.880;37.542;2023-12-20T10:22:21;97067.16;;;4.80;87.70
70952;BME280;69214;55.880;37.542;2023-12-20T10:24:47;97089.13;;;4.89;88.26
70952;BME280;69214;55.880;37.542;2023-12-20T10:27:13;97080.97;;;4.84;87.77
70952;BME280;69214;55.880;37.542;2023-12-20T10:29:39;97076.56;;;4.78;87.71
70952;BME280;69214;55.880;37.542;2023-12-20T10:32:25;97083.63;;;4.79;87.72
70952;BME280;69214;55.880;37.542;2023-12-20T10:34:52;97092.53;;;4.79;88.03
70952;BME280;69214;55.880;37.542;2023-12-20T10:37:18;97095.22;;;4.79;87.78
70952;BME280;69214;55.880;37.542;2023-12-20T10:39:49;97091.22;;;4.82;88.29
70952;BME280;69214;55.880;37.542;2023-12-20T10:42:16;97090.69;;;4.85;88.21
70952;BME280;69214;55.880;37.542;2023-12-20T10:44:43;97079.38;;;4.88;87.91
70952;BME280;69214;55.880;37.542;2023-12-20T10:47:09;97091.53;;;4.85;88.41
70952;BME280;69214;55.880;37.542;2023-12-20T10:49:37;97088.31;;;4.88;88.00
70952;BME280;69214;55.880;37.542;2023-12-20T10:52:03;97053.47;;;4.65;87.73
70952;BME280;69214;55.880;37.542;2023-12-20T10:54:31;97090.97;;;4.83;87.54
70952;BME280;69214;55.880;37.542;2023-12-20T10:56:57;97083.31;;;4.75;87.46
70952;BME280;69214;55.880;37.542;2023-12-20T10:59:24;97082.44;;;4.70;87.85
70952;BME280;69214;55.880;37.542;2023-12-20T11:01:50;97067.19;;;4.59;87.68
70952;BME280;69214;55.880;37.542;2023-12-20T11:04:24;97066.34;;;4.58;87.87
70952;BME280;69214;55.880;37.542;2023-12-20T11:06:56;97060.34;;;4.51;87.65
70952;BME280;69214;55.880;37.542;2023-12-20T11:09:31;97063.22;;;4.44;87.56
70952;BME280;69214;55.880;37.542;2023-12-20T11:12:20;97080.94;;;4.57;87.80
70952;BME280;69214;55.880;37.542;2023-12-20T11:14:53;97075.84;;;4.61;88.12
70952;BME280;69214;55.880;37.542;2023-12-20T11:17:23;97063.16;;;4.61;88.09
70952;BME280;69214;55.880;37.542;2023-12-20T11:22:25;97058.50;;;4.57;87.73
70952;BME280;69214;55.880;37.542;2023-12-20T11:24:52;97065.53;;;4.58;87.92
70952;BME280;69214;55.880;37.542;2023-12-20T11:27:19;97067.94;;;4.54;87.56
70952;BME280;69214;55.880;37.542;2023-12-20T11:29:56;97069.75;;;4.48;87.42
70952;BME280;69214;55.880;37.542;2023-12-20T11:34:53;97059.03;;;4.32;87.90
70952;BME280;69214;55.880;37.542;2023-12-20T11:37:20;97055.63;;;4.19;87.36
70952;BME280;69214;55.880;37.542;2023-12-20T11:39:58;97083.56;;;4.30;87.48
70952;BME280;69214;55.880;37.542;2023-12-20T11:42:26;97076.22;;;4.26;88.10
70952;BME280;69214;55.880;37.542;2023-12-20T11:44:53;97079.47;;;4.28;87.78
70952;BME280;69214;55.880;37.542;2023-12-20T11:47:19;97094.84;;;4.27;87.83
70952;BME280;69214;55.880;37.542;2023-12-20T11:49:49;97095.44;;;4.29;87.78
70952;BME280;69214;55.880;37.542;2023-12-20T11:52:15;97095.75;;;4.33;88.30
70952;BME280;69214;55.880;37.542;2023-12-20T11:54:40;97074.28;;;4.21;87.73
70952;BME280;69214;55.880;37.542;2023-12-20T11:57:06;97101.41;;;4.31;88.05
70952;BME280;69214;55.880;37.542;2023-12-20T11:59:32;97094.13;;;4.32;87.77
70952;BME280;69214;55.880;37.542;2023-12-20T12:01:58;97103.03;;;4.32;88.16
70952;BME280;69214;55.880;37.542;2023-12-20T12:04:27;97074.59;;;4.25;88.03
70952;BME280;69214;55.880;37.542;2023-12-20T12:06:54;97091.03;;;4.23;87.74
70952;BME280;69214;55.880;37.542;2023-12-20T12:09:19;97073.25;;;4.05;87.68
70952;BME280;69214;55.880;37.542;2023-12-20T12:11:45;97100.06;;;4.12;87.62
70952;BME280;69214;55.880;37.542;2023-12-20T12:14:11;97099.81;;;4.13;88.09
70952;BME280;69214;55.880;37.542;2023-12-20T12:16:37;97106.84;;;4.14;87.72
70952;BME280;69214;55.880;37.542;2023-12-20T12:19:03;97102.19;;;4.10;87.94
70952;BME280;69214;55.880;37.542;2023-12-20T12:21:30;97099.00;;;4.13;88.35
70952;BME280;69214;55.880;37.542;2023-12-20T12:24:08;97111.56;;;4.24;88.03
70952;BME280;69214;55.880;37.542;2023-12-20T12:26:34;97110.50;;;4.25;88.36
70952;BME280;69214;55.880;37.542;2023-12-20T12:29:00;97116.69;;;4.26;88.07
70952;BME280;69214;55.880;37.542;2023-12-20T12:31:26;97122.91;;;4.26;88.37
70952;BME280;69214;55.880;37.542;2023-12-20T12:33:52;97116.63;;;4.20;87.90
70952;BME280;69214;55.880;37.542;2023-12-20T12:36:18;97111.72;;;4.17;87.87
70952;BME280;69214;55.880;37.542;2023-12-20T12:38:44;97132.34;;;4.23;87.85
70952;BME280;69214;55.880;37.542;2023-12-20T12:41:12;97136.91;;;4.23;88.12
70952;BME280;69214;55.880;37.542;2023-12-20T12:43:38;97137.97;;;4.22;88.09
70952;BME280;69214;55.880;37.542;2023-12-20T12:46:04;97147.16;;;4.21;88.03
70952;BME280;69214;55.880;37.542;2023-12-20T12:48:30;97140.53;;;4.12;88.08
70952;BME280;69214;55.880;37.542;2023-12-20T12:50:56;97130.09;;;3.99;88.19
70952;BME280;69214;55.880;37.542;2023-12-20T12:53:25;97148.44;;;4.18;88.13
70952;BME280;69214;55.880;37.542;2023-12-20T12:55:53;97153.84;;;4.18;88.06
70952;BME280;69214;55.880;37.542;2023-12-20T12:58:20;97141.28;;;4.07;87.58
70952;BME280;69214;55.880;37.542;2023-12-20T13:00:46;97148.06;;;4.10;87.69